sensor_id;sensor_type;location;lat;lon;timestamp;pressure;altitude;pressure_sealevel;temperature;humidity
57600;BME280;43426;43.594;24.334;2023-07-29T00:00:41;100853.88;;;16.37;93.36
57600;BME280;43426;43.594;24.334;2023-07-29T00:03:10;100848.22;;;16.38;93.33
57600;BME280;43426;43.594;24.334;2023-07-29T00:05:39;100844.41;;;16.39;93.24
57600;BME280;43426;43.594;24.334;2023-07-29T00:08:04;100843.56;;;16.19;93.78
57600;BME280;43426;43.594;24.334;2023-07-29T00:10:34;100855.09;;;16.21;94.19
57600;BME280;43426;43.594;24.334;2023-07-29T00:13:00;100861.38;;;16.14;94.92
57600;BME280;43426;43.594;24.334;2023-07-29T00:15:25;100860.31;;;16.22;94.82
57600;BME280;43426;43.594;24.334;2023-07-29T00:17:51;100858.22;;;16.31;94.50
57600;BME280;43426;43.594;24.334;2023-07-29T00:20:16;100868.06;;;16.12;95.56
57600;BME280;43426;43.594;24.334;2023-07-29T00:22:41;100860.28;;;16.09;96.06
57600;BME280;43426;43.594;24.334;2023-07-29T00:25:07;100852.31;;;16.00;96.24
57600;BME280;43426;43.594;24.334;2023-07-29T00:27:32;100852.31;;;16.07;95.96
57600;BME280;43426;43.594;24.334;2023-07-29T00:29:57;100855.03;;;16.07;95.36
57600;BME280;43426;43.594;24.334;2023-07-29T00:32:22;100857.13;;;16.05;95.07
57600;BME280;43426;43.594;24.334;2023-07-29T00:34:48;100857.75;;;16.07;94.86
57600;BME280;43426;43.594;24.334;2023-07-29T00:37:13;100856.31;;;16.11;94.57
57600;BME280;43426;43.594;24.334;2023-07-29T00:39:38;100861.53;;;16.06;94.61
57600;BME280;43426;43.594;24.334;2023-07-29T00:42:04;100857.94;;;15.99;95.05
57600;BME280;43426;43.594;24.334;2023-07-29T00:44:29;100857.75;;;16.07;94.80
57600;BME280;43426;43.594;24.334;2023-07-29T00:46:56;100860.66;;;15.99;94.83
57600;BME280;43426;43.594;24.334;2023-07-29T00:49:22;100858.94;;;15.85;95.22
57600;BME280;43426;43.594;24.334;2023-07-29T00:51:47;100853.44;;;15.78;95.65
57600;BME280;43426;43.594;24.334;2023-07-29T00:54:13;100856.53;;;15.68;96.28
57600;BME280;43426;43.594;24.334;2023-07-29T00:56:38;100853.41;;;15.71;96.68
57600;BME280;43426;43.594;24.334;2023-07-29T00:59:04;100856.94;;;15.65;97.45
57600;BME280;43426;43.594;24.334;2023-07-29T01:01:30;100850.47;;;15.73;97.53
57600;BME280;43426;43.594;24.334;2023-07-29T01:03:55;100861.81;;;15.76;97.21
57600;BME280;43426;43.594;24.334;2023-07-29T01:06:27;100863.50;;;15.77;97.34
57600;BME280;43426;43.594;24.334;2023-07-29T01:09:40;100854.84;;;15.67;97.61
57600;BME280;43426;43.594;24.334;2023-07-29T01:11:58;100862.50;;;15.85;97.39
57600;BME280;43426;43.594;24.334;2023-07-29T01:14:37;100860.97;;;15.76;97.37
57600;BME280;43426;43.594;24.334;2023-07-29T01:17:08;100861.41;;;15.79;97.30
57600;BME280;43426;43.594;24.334;2023-07-29T01:22:18;100863.75;;;15.89;94.37
57600;BME280;43426;43.594;24.334;2023-07-29T01:24:45;100862.69;;;15.83;94.39
57600;BME280;43426;43.594;24.334;2023-07-29T01:27:10;100859.88;;;15.63;94.93
57600;BME280;43426;43.594;24.334;2023-07-29T01:29:35;100860.41;;;15.45;95.83
57600;BME280;43426;43.594;24.334;2023-07-29T01:32:01;100864.56;;;15.41;96.74
57600;BME280;43426;43.594;24.334;2023-07-29T01:34:35;100868.19;;;15.55;96.51
57600;BME280;43426;43.594;24.334;2023-07-29T01:37:04;100875.69;;;15.53;96.19
57600;BME280;43426;43.594;24.334;2023-07-29T01:39:32;100863.34;;;15.50;95.87
57600;BME280;43426;43.594;24.334;2023-07-29T01:41:58;100868.41;;;15.54;95.26
57600;BME280;43426;43.594;24.334;2023-07-29T01:44:23;100866.06;;;15.50;95.60
57600;BME280;43426;43.594;24.334;2023-07-29T01:46:49;100863.13;;;15.45;96.08
57600;BME280;43426;43.594;24.334;2023-07-29T01:49:15;100856.97;;;15.37;96.65
57600;BME280;43426;43.594;24.334;2023-07-29T01:51:40;100855.53;;;15.34;96.79
57600;BME280;43426;43.594;24.334;2023-07-29T01:54:05;100856.50;;;15.26;97.45
57600;BME280;43426;43.594;24.334;2023-07-29T01:56:31;100853.59;;;15.28;97.73
57600;BME280;43426;43.594;24.334;2023-07-29T01:58:56;100856.06;;;15.23;97.96
57600;BME280;43426;43.594;24.334;2023-07-29T02:01:21;100858.41;;;15.26;97.38
57600;BME280;43426;43.594;24.334;2023-07-29T02:03:47;100856.06;;;15.23;97.11
57600;BME280;43426;43.594;24.334;2023-07-29T02:06:18;100867.75;;;15.17;97.12
57600;BME280;43426;43.594;24.334;2023-07-29T02:08:45;100868.72;;;15.09;97.15
57600;BME280;43426;43.594;24.334;2023-07-29T02:11:11;100868.28;;;15.05;97.03
57600;BME280;43426;43.594;24.334;2023-07-29T02:13:36;100873.53;;;15.07;97.19
57600;BME280;43426;43.594;24.334;2023-07-29T02:16:01;100870.34;;;15.03;97.20
57600;BME280;43426;43.594;24.334;2023-07-29T02:18:27;100879.09;;;14.98;97.70
57600;BME280;43426;43.594;24.334;2023-07-29T02:20:52;100874.97;;;15.03;97.88
57600;BME280;43426;43.594;24.334;2023-07-29T02:23:17;100870.75;;;15.00;97.66
57600;BME280;43426;43.594;24.334;2023-07-29T02:25:42;100869.31;;;15.04;97.39
57600;BME280;43426;43.594;24.334;2023-07-29T02:28:10;100856.28;;;14.93;97.33
57600;BME280;43426;43.594;24.334;2023-07-29T02:30:36;100862.00;;;14.76;98.10
57600;BME280;43426;43.594;24.334;2023-07-29T02:33:01;100871.56;;;14.72;98.73
57600;BME280;43426;43.594;24.334;2023-07-29T02:35:27;100870.34;;;14.75;98.81
57600;BME280;43426;43.594;24.334;2023-07-29T02:37:52;100887.53;;;14.82;98.34
57600;BME280;43426;43.594;24.334;2023-07-29T02:40:18;100889.84;;;14.85;97.45
57600;BME280;43426;43.594;24.334;2023-07-29T02:42:43;100882.44;;;14.72;97.95
57600;BME280;43426;43.594;24.334;2023-07-29T02:45:08;100882.88;;;14.76;98.25
57600;BME280;43426;43.594;24.334;2023-07-29T02:47:36;100882.03;;;14.75;97.85
57600;BME280;43426;43.594;24.334;2023-07-29T02:50:01;100892.41;;;14.65;98.25
57600;BME280;43426;43.594;24.334;2023-07-29T02:52:26;100883.59;;;14.63;98.15
57600;BME280;43426;43.594;24.334;2023-07-29T02:54:51;100879.94;;;14.56;98.46
57600;BME280;43426;43.594;24.334;2023-07-29T02:57:17;100885.91;;;14.66;98.65
57600;BME280;43426;43.594;24.334;2023-07-29T02:59:42;100885.16;;;14.72;97.82
57600;BME280;43426;43.594;24.334;2023-07-29T03:02:07;100885.91;;;14.66;97.06
57600;BME280;43426;43.594;24.334;2023-07-29T03:04:33;100886.88;;;14.58;97.74
57600;BME280;43426;43.594;24.334;2023-07-29T03:06:58;100883.97;;;14.60;98.10
57600;BME280;43426;43.594;24.334;2023-07-29T03:09:24;100887.31;;;14.40;99.38
57600;BME280;43426;43.594;24.334;2023-07-29T03:11:49;100889.13;;;14.33;100.00
57600;BME280;43426;43.594;24.334;2023-07-29T03:14:16;100896.03;;;14.36;100.00
57600;BME280;43426;43.594;24.334;2023-07-29T03:16:42;100888.22;;;14.47;100.00
57600;BME280;43426;43.594;24.334;2023-07-29T03:19:07;100880.34;;;14.53;99.35
57600;BME280;43426;43.594;24.334;2023-07-29T03:21:32;100885.50;;;14.47;99.84
57600;BME280;43426;43.594;24.334;2023-07-29T03:23:57;100886.22;;;14.56;99.41
57600;BME280;43426;43.594;24.334;2023-07-29T03:26:23;100894.00;;;14.59;99.50
57600;BME280;43426;43.594;24.334;2023-07-29T03:28:48;100899.16;;;14.54;100.00
57600;BME280;43426;43.594;24.334;2023-07-29T03:31:13;100903.03;;;14.45;100.00
57600;BME280;43426;43.594;24.334;2023-07-29T03:33:39;100911.03;;;14.53;100.00
57600;BME280;43426;43.594;24.334;2023-07-29T03:36:04;100916.09;;;14.56;100.00
57600;BME280;43426;43.594;24.334;2023-07-29T03:38:29;100909.81;;;14.56;100.00
57600;BME280;43426;43.594;24.334;2023-07-29T03:40:55;100904.59;;;14.76;99.11
57600;BME280;43426;43.594;24.334;2023-07-29T03:43:20;100907.91;;;14.71;98.82
57600;BME280;43426;43.594;24.334;2023-07-29T03:45:45;100911.31;;;14.80;98.01
57600;BME280;43426;43.594;24.334;2023-07-29T03:48:10;100911.72;;;14.77;98.65
57600;BME280;43426;43.594;24.334;2023-07-29T03:50:36;100912.94;;;14.74;99.55
57600;BME280;43426;43.594;24.334;2023-07-29T03:53:05;100917.81;;;14.79;100.00
57600;BME280;43426;43.594;24.334;2023-07-29T03:55:30;100914.78;;;14.89;99.96
57600;BME280;43426;43.594;24.334;2023-07-29T03:57:56;100911.53;;;15.00;100.00
57600;BME280;43426;43.594;24.334;2023-07-29T04:00:22;100912.69;;;14.91;100.00
57600;BME280;43426;43.594;24.334;2023-07-29T04:02:47;100911.44;;;14.93;100.00
57600;BME280;43426;43.594;24.334;2023-07-29T04:05:12;100921.72;;;14.98;100.00
57600;BME280;43426;43.594;24.334;2023-07-29T04:07:37;100913.81;;;15.25;100.00
57600;BME280;43426;43.594;24.334;2023-07-29T04:10:03;100920.97;;;15.32;100.00
57600;BME280;43426;43.594;24.334;2023-07-29T04:12:29;100912.06;;;15.45;100.00
57600;BME280;43426;43.594;24.334;2023-07-29T04:14:54;100906.56;;;15.74;99.92
57600;BME280;43426;43.594;24.334;2023-07-29T04:17:20;100911.09;;;15.95;99.51
57600;BME280;43426;43.594;24.334;2023-07-29T04:19:45;100911.66;;;16.32;97.39
57600;BME280;43426;43.594;24.334;2023-07-29T04:22:10;100913.16;;;16.41;97.42
57600;BME280;43426;43.594;24.334;2023-07-29T04:24:35;100911.94;;;16.64;96.12
57600;BME280;43426;43.594;24.334;2023-07-29T04:27:01;100912.38;;;16.74;96.12
57600;BME280;43426;43.594;24.334;2023-07-29T04:29:26;100906.53;;;16.97;96.06
57600;BME280;43426;43.594;24.334;2023-07-29T04:31:52;100909.28;;;17.24;94.79
57600;BME280;43426;43.594;24.334;2023-07-29T04:34:18;100911.97;;;17.44;94.22
57600;BME280;43426;43.594;24.334;2023-07-29T04:36:44;100912.75;;;17.65;92.84
57600;BME280;43426;43.594;24.334;2023-07-29T04:39:09;100914.75;;;18.10;90.02
57600;BME280;43426;43.594;24.334;2023-07-29T04:41:34;100915.69;;;18.29;89.40
57600;BME280;43426;43.594;24.334;2023-07-29T04:44:00;100916.84;;;18.53;87.54
57600;BME280;43426;43.594;24.334;2023-07-29T04:46:25;100918.59;;;18.72;86.56
57600;BME280;43426;43.594;24.334;2023-07-29T04:48:50;100919.00;;;19.08;83.26
57600;BME280;43426;43.594;24.334;2023-07-29T04:51:16;100921.22;;;19.18;83.47
57600;BME280;43426;43.594;24.334;2023-07-29T04:53:42;100924.91;;;19.30;83.17
57600;BME280;43426;43.594;24.334;2023-07-29T04:56:07;100923.88;;;19.50;81.67
57600;BME280;43426;43.594;24.334;2023-07-29T04:58:33;100919.91;;;19.64;80.16
57600;BME280;43426;43.594;24.334;2023-07-29T05:01:00;100926.50;;;19.82;80.28
57600;BME280;43426;43.594;24.334;2023-07-29T05:03:25;100919.56;;;19.79;81.21
57600;BME280;43426;43.594;24.334;2023-07-29T05:05:51;100917.28;;;20.13;79.83
57600;BME280;43426;43.594;24.334;2023-07-29T05:08:18;100923.38;;;20.46;76.92
57600;BME280;43426;43.594;24.334;2023-07-29T05:10:43;100915.94;;;20.65;75.89
57600;BME280;43426;43.594;24.334;2023-07-29T05:13:09;100922.00;;;20.67;75.15
57600;BME280;43426;43.594;24.334;2023-07-29T05:15:34;100916.09;;;20.70;75.73
57600;BME280;43426;43.594;24.334;2023-07-29T05:17:59;100919.59;;;20.77;75.21
57600;BME280;43426;43.594;24.334;2023-07-29T05:20:24;100924.34;;;20.82;74.80
57600;BME280;43426;43.594;24.334;2023-07-29T05:22:50;100922.84;;;20.98;75.02
57600;BME280;43426;43.594;24.334;2023-07-29T05:25:15;100917.25;;;21.16;72.93
57600;BME280;43426;43.594;24.334;2023-07-29T05:27:40;100917.47;;;21.26;72.74
57600;BME280;43426;43.594;24.334;2023-07-29T05:30:06;100919.50;;;21.43;71.71
57600;BME280;43426;43.594;24.334;2023-07-29T05:32:32;100921.44;;;21.54;71.41
57600;BME280;43426;43.594;24.334;2023-07-29T05:34:57;100914.16;;;21.72;70.88
57600;BME280;43426;43.594;24.334;2023-07-29T05:37:22;100917.84;;;21.89;69.87
57600;BME280;43426;43.594;24.334;2023-07-29T05:39:48;100916.72;;;22.02;69.53
57600;BME280;43426;43.594;24.334;2023-07-29T05:42:13;100922.88;;;22.21;69.35
57600;BME280;43426;43.594;24.334;2023-07-29T05:44:38;100918.63;;;22.42;67.76
57600;BME280;43426;43.594;24.334;2023-07-29T05:47:03;100919.38;;;22.67;68.02
57600;BME280;43426;43.594;24.334;2023-07-29T05:49:29;100924.53;;;22.80;66.81
57600;BME280;43426;43.594;24.334;2023-07-29T05:51:54;100923.28;;;23.05;66.03
57600;BME280;43426;43.594;24.334;2023-07-29T05:54:19;100925.50;;;23.20;63.98
57600;BME280;43426;43.594;24.334;2023-07-29T05:56:44;100920.38;;;23.28;64.57
57600;BME280;43426;43.594;24.334;2023-07-29T05:59:10;100932.78;;;23.65;64.09
57600;BME280;43426;43.594;24.334;2023-07-29T06:01:35;100931.28;;;23.96;61.30
57600;BME280;43426;43.594;24.334;2023-07-29T06:04:00;100931.69;;;24.05;61.63
57600;BME280;43426;43.594;24.334;2023-07-29T06:06:26;100929.09;;;24.21;59.51
57600;BME280;43426;43.594;24.334;2023-07-29T06:08:51;100934.44;;;24.27;59.01
57600;BME280;43426;43.594;24.334;2023-07-29T06:11:16;100935.78;;;24.25;57.72
57600;BME280;43426;43.594;24.334;2023-07-29T06:13:42;100934.47;;;24.33;57.36
57600;BME280;43426;43.594;24.334;2023-07-29T06:16:07;100932.13;;;24.19;58.63
57600;BME280;43426;43.594;24.334;2023-07-29T06:18:32;100921.72;;;24.26;58.50
57600;BME280;43426;43.594;24.334;2023-07-29T06:20:57;100923.75;;;24.36;56.42
57600;BME280;43426;43.594;24.334;2023-07-29T06:23:23;100914.69;;;24.63;56.49
57600;BME280;43426;43.594;24.334;2023-07-29T06:25:48;100926.16;;;24.82;56.11
57600;BME280;43426;43.594;24.334;2023-07-29T06:28:13;100920.97;;;24.86;55.05
57600;BME280;43426;43.594;24.334;2023-07-29T06:30:38;100913.50;;;24.86;55.71
57600;BME280;43426;43.594;24.334;2023-07-29T06:33:04;100921.16;;;25.11;52.84
57600;BME280;43426;43.594;24.334;2023-07-29T06:35:30;100921.59;;;25.30;53.37
57600;BME280;43426;43.594;24.334;2023-07-29T06:37:55;100914.53;;;25.45;55.22
57600;BME280;43426;43.594;24.334;2023-07-29T06:40:20;100920.22;;;25.76;54.50
57600;BME280;43426;43.594;24.334;2023-07-29T06:42:46;100920.97;;;26.14;52.70
57600;BME280;43426;43.594;24.334;2023-07-29T06:45:11;100917.19;;;26.51;50.50
57600;BME280;43426;43.594;24.334;2023-07-29T06:47:36;100926.63;;;26.65;50.42
57600;BME280;43426;43.594;24.334;2023-07-29T06:50:02;100920.84;;;26.77;51.14
57600;BME280;43426;43.594;24.334;2023-07-29T06:52:27;100920.88;;;27.03;47.25
57600;BME280;43426;43.594;24.334;2023-07-29T06:54:52;100925.00;;;27.21;47.08
57600;BME280;43426;43.594;24.334;2023-07-29T06:57:18;100926.66;;;27.27;47.31
57600;BME280;43426;43.594;24.334;2023-07-29T06:59:45;100925.56;;;27.39;46.88
57600;BME280;43426;43.594;24.334;2023-07-29T07:02:11;100923.03;;;27.52;46.63
57600;BME280;43426;43.594;24.334;2023-07-29T07:04:36;100923.53;;;27.70;46.55
57600;BME280;43426;43.594;24.334;2023-07-29T07:07:01;100926.22;;;28.01;47.28
57600;BME280;43426;43.594;24.334;2023-07-29T07:09:26;100921.22;;;28.53;44.82
57600;BME280;43426;43.594;24.334;2023-07-29T07:11:52;100922.97;;;28.83;43.82
57600;BME280;43426;43.594;24.334;2023-07-29T07:14:17;100923.16;;;28.97;43.19
57600;BME280;43426;43.594;24.334;2023-07-29T07:16:42;100920.19;;;29.18;42.43
57600;BME280;43426;43.594;24.334;2023-07-29T07:19:08;100912.31;;;29.54;41.53
57600;BME280;43426;43.594;24.334;2023-07-29T07:21:33;100913.81;;;29.47;40.06
57600;BME280;43426;43.594;24.334;2023-07-29T07:24:00;100919.25;;;29.81;39.34
57600;BME280;43426;43.594;24.334;2023-07-29T07:26:26;100913.84;;;29.95;36.70
57600;BME280;43426;43.594;24.334;2023-07-29T07:28:51;100915.78;;;29.95;37.94
57600;BME280;43426;43.594;24.334;2023-07-29T07:31:17;100906.75;;;30.03;36.50
57600;BME280;43426;43.594;24.334;2023-07-29T07:33:42;100910.31;;;30.09;36.08
57600;BME280;43426;43.594;24.334;2023-07-29T07:36:07;100914.09;;;30.18;36.20
57600;BME280;43426;43.594;24.334;2023-07-29T07:38:33;100910.41;;;30.42;35.84
57600;BME280;43426;43.594;24.334;2023-07-29T07:40:58;100900.72;;;30.58;34.74
57600;BME280;43426;43.594;24.334;2023-07-29T07:43:23;100903.91;;;30.84;33.75
57600;BME280;43426;43.594;24.334;2023-07-29T07:45:49;100906.63;;;30.89;34.83
57600;BME280;43426;43.594;24.334;2023-07-29T07:48:14;100902.41;;;30.92;35.54
57600;BME280;43426;43.594;24.334;2023-07-29T07:50:41;100906.31;;;30.91;33.38
57600;BME280;43426;43.594;24.334;2023-07-29T07:53:07;100891.44;;;31.15;34.93
57600;BME280;43426;43.594;24.334;2023-07-29T07:55:32;100902.44;;;31.53;33.90
57600;BME280;43426;43.594;24.334;2023-07-29T07:57:57;100892.44;;;31.80;32.98
57600;BME280;43426;43.594;24.334;2023-07-29T08:00:22;100900.47;;;31.95;32.26
57600;BME280;43426;43.594;24.334;2023-07-29T08:02:48;100899.50;;;32.14;33.00
57600;BME280;43426;43.594;24.334;2023-07-29T08:05:13;100892.16;;;32.18;30.97
57600;BME280;43426;43.594;24.334;2023-07-29T08:07:38;100889.63;;;31.94;31.65
57600;BME280;43426;43.594;24.334;2023-07-29T08:10:04;100896.34;;;31.92;30.41
57600;BME280;43426;43.594;24.334;2023-07-29T08:12:29;100896.63;;;32.05;30.47
57600;BME280;43426;43.594;24.334;2023-07-29T08:14:54;100890.41;;;32.22;29.61
57600;BME280;43426;43.594;24.334;2023-07-29T08:17:20;100884.59;;;32.55;28.96
57600;BME280;43426;43.594;24.334;2023-07-29T08:19:45;100887.41;;;33.00;28.61
57600;BME280;43426;43.594;24.334;2023-07-29T08:22:10;100884.00;;;33.35;27.85
57600;BME280;43426;43.594;24.334;2023-07-29T08:24:36;100879.38;;;33.70;26.70
57600;BME280;43426;43.594;24.334;2023-07-29T08:27:01;100875.66;;;33.92;27.51
57600;BME280;43426;43.594;24.334;2023-07-29T08:29:26;100878.09;;;33.76;26.22
57600;BME280;43426;43.594;24.334;2023-07-29T08:31:51;100873.81;;;33.88;27.56
57600;BME280;43426;43.594;24.334;2023-07-29T08:34:17;100878.78;;;34.08;26.93
57600;BME280;43426;43.594;24.334;2023-07-29T08:36:42;100872.53;;;33.94;25.00
57600;BME280;43426;43.594;24.334;2023-07-29T08:39:08;100866.31;;;33.57;25.10
57600;BME280;43426;43.594;24.334;2023-07-29T08:41:48;100868.25;;;33.48;25.43
57600;BME280;43426;43.594;24.334;2023-07-29T08:44:18;100862.16;;;33.46;25.97
57600;BME280;43426;43.594;24.334;2023-07-29T08:46:46;100865.16;;;33.58;26.22
57600;BME280;43426;43.594;24.334;2023-07-29T08:49:15;100862.41;;;33.75;26.24
57600;BME280;43426;43.594;24.334;2023-07-29T08:51:43;100853.41;;;33.79;26.56
57600;BME280;43426;43.594;24.334;2023-07-29T08:54:10;100860.66;;;33.97;26.58
57600;BME280;43426;43.594;24.334;2023-07-29T08:56:35;100855.44;;;34.39;26.28
57600;BME280;43426;43.594;24.334;2023-07-29T08:59:01;100855.94;;;34.41;26.49
57600;BME280;43426;43.594;24.334;2023-07-29T09:01:27;100855.94;;;34.33;26.17
57600;BME280;43426;43.594;24.334;2023-07-29T09:03:52;100858.03;;;34.18;23.93
57600;BME280;43426;43.594;24.334;2023-07-29T09:06:20;100841.94;;;34.33;25.99
57600;BME280;43426;43.594;24.334;2023-07-29T09:08:46;100844.88;;;34.54;26.58
57600;BME280;43426;43.594;24.334;2023-07-29T09:11:14;100841.41;;;34.57;25.24
57600;BME280;43426;43.594;24.334;2023-07-29T09:13:42;100838.56;;;34.83;24.93
57600;BME280;43426;43.594;24.334;2023-07-29T09:16:07;100836.06;;;34.99;25.14
57600;BME280;43426;43.594;24.334;2023-07-29T09:18:33;100829.28;;;35.09;25.96
57600;BME280;43426;43.594;24.334;2023-07-29T09:20:59;100839.13;;;35.54;24.74
57600;BME280;43426;43.594;24.334;2023-07-29T09:23:26;100830.81;;;35.96;23.92
57600;BME280;43426;43.594;24.334;2023-07-29T09:25:53;100843.25;;;35.86;23.44
57600;BME280;43426;43.594;24.334;2023-07-29T09:28:25;100835.81;;;35.60;22.52
57600;BME280;43426;43.594;24.334;2023-07-29T09:30:50;100850.47;;;35.27;23.02
57600;BME280;43426;43.594;24.334;2023-07-29T09:33:17;100836.53;;;35.01;24.37
57600;BME280;43426;43.594;24.334;2023-07-29T09:35:45;100837.41;;;34.93;24.72
57600;BME280;43426;43.594;24.334;2023-07-29T09:38:14;100833.31;;;34.64;25.26
57600;BME280;43426;43.594;24.334;2023-07-29T09:40:40;100827.41;;;34.57;25.88
57600;BME280;43426;43.594;24.334;2023-07-29T09:43:06;100821.22;;;34.99;26.02
57600;BME280;43426;43.594;24.334;2023-07-29T09:45:33;100829.50;;;35.63;24.46
57600;BME280;43426;43.594;24.334;2023-07-29T09:47:58;100817.22;;;35.98;24.63
57600;BME280;43426;43.594;24.334;2023-07-29T09:50:24;100817.50;;;36.47;24.99
57600;BME280;43426;43.594;24.334;2023-07-29T09:52:52;100820.81;;;36.62;23.92
57600;BME280;43426;43.594;24.334;2023-07-29T09:55:18;100821.41;;;36.68;24.68
57600;BME280;43426;43.594;24.334;2023-07-29T09:57:44;100813.78;;;36.56;23.06
57600;BME280;43426;43.594;24.334;2023-07-29T10:00:13;100812.81;;;36.30;23.24
57600;BME280;43426;43.594;24.334;2023-07-29T10:02:39;100817.22;;;36.19;24.10
57600;BME280;43426;43.594;24.334;2023-07-29T10:05:05;100821.06;;;36.36;24.34
57600;BME280;43426;43.594;24.334;2023-07-29T10:07:31;100807.31;;;36.55;22.49
57600;BME280;43426;43.594;24.334;2023-07-29T10:09:56;100804.22;;;35.93;23.75
57600;BME280;43426;43.594;24.334;2023-07-29T10:12:22;100808.38;;;35.87;24.60
57600;BME280;43426;43.594;24.334;2023-07-29T10:14:49;100800.81;;;35.88;23.59
57600;BME280;43426;43.594;24.334;2023-07-29T10:17:15;100801.19;;;35.99;24.63
57600;BME280;43426;43.594;24.334;2023-07-29T10:19:40;100797.28;;;36.33;23.82
57600;BME280;43426;43.594;24.334;2023-07-29T10:22:07;100806.50;;;36.55;22.46
57600;BME280;43426;43.594;24.334;2023-07-29T10:24:33;100794.00;;;36.64;23.53
57600;BME280;43426;43.594;24.334;2023-07-29T10:27:00;100794.06;;;36.43;23.05
57600;BME280;43426;43.594;24.334;2023-07-29T10:29:32;100791.34;;;36.47;23.89
57600;BME280;43426;43.594;24.334;2023-07-29T10:32:02;100790.69;;;36.29;23.33
57600;BME280;43426;43.594;24.334;2023-07-29T10:34:29;100782.31;;;36.41;23.06
57600;BME280;43426;43.594;24.334;2023-07-29T10:36:59;100782.69;;;36.40;22.99
57600;BME280;43426;43.594;24.334;2023-07-29T10:39:24;100779.16;;;36.76;23.61
57600;BME280;43426;43.594;24.334;2023-07-29T10:49:39;100767.81;;;37.22;22.67
57600;BME280;43426;43.594;24.334;2023-07-29T10:52:05;100762.28;;;37.01;22.15
57600;BME280;43426;43.594;24.334;2023-07-29T10:54:32;100759.25;;;37.06;23.26
57600;BME280;43426;43.594;24.334;2023-07-29T10:57:06;100749.53;;;37.41;23.89
57600;BME280;43426;43.594;24.334;2023-07-29T10:59:32;100752.19;;;37.62;22.42
57600;BME280;43426;43.594;24.334;2023-07-29T11:01:58;100753.56;;;37.80;22.82
57600;BME280;43426;43.594;24.334;2023-07-29T11:04:25;100755.16;;;37.94;22.08
57600;BME280;43426;43.594;24.334;2023-07-29T11:14:55;100746.03;;;38.13;22.79
57600;BME280;43426;43.594;24.334;2023-07-29T11:17:20;100740.97;;;38.47;21.44
57600;BME280;43426;43.594;24.334;2023-07-29T11:19:46;100731.91;;;38.25;22.81
57600;BME280;43426;43.594;24.334;2023-07-29T11:22:11;100737.38;;;38.34;21.76
57600;BME280;43426;43.594;24.334;2023-07-29T11:24:36;100741.09;;;38.22;20.20
57600;BME280;43426;43.594;24.334;2023-07-29T11:27:02;100731.13;;;38.25;22.57
57600;BME280;43426;43.594;24.334;2023-07-29T11:29:27;100737.31;;;38.30;20.49
57600;BME280;43426;43.594;24.334;2023-07-29T11:31:52;100729.22;;;38.45;22.10
57600;BME280;43426;43.594;24.334;2023-07-29T11:34:30;100730.25;;;38.69;20.01
57600;BME280;43426;43.594;24.334;2023-07-29T11:36:55;100726.75;;;38.43;20.29
57600;BME280;43426;43.594;24.334;2023-07-29T11:39:21;100722.13;;;38.51;22.19
57600;BME280;43426;43.594;24.334;2023-07-29T11:41:46;100715.78;;;38.70;20.83
57600;BME280;43426;43.594;24.334;2023-07-29T11:44:16;100713.56;;;38.47;21.05
57600;BME280;43426;43.594;24.334;2023-07-29T11:46:41;100707.69;;;38.08;20.66
57600;BME280;43426;43.594;24.334;2023-07-29T11:49:07;100701.13;;;37.76;21.78
57600;BME280;43426;43.594;24.334;2023-07-29T11:51:33;100703.03;;;37.59;22.53
57600;BME280;43426;43.594;24.334;2023-07-29T11:53:58;100706.16;;;37.82;22.58
57600;BME280;43426;43.594;24.334;2023-07-29T11:56:23;100703.28;;;37.95;21.41
57600;BME280;43426;43.594;24.334;2023-07-29T11:58:51;100692.75;;;38.08;22.13
57600;BME280;43426;43.594;24.334;2023-07-29T12:01:16;100698.81;;;37.94;22.77
57600;BME280;43426;43.594;24.334;2023-07-29T12:03:42;100694.47;;;37.96;23.30
57600;BME280;43426;43.594;24.334;2023-07-29T12:06:08;100693.59;;;37.68;21.96
57600;BME280;43426;43.594;24.334;2023-07-29T12:08:33;100694.31;;;37.36;22.69
57600;BME280;43426;43.594;24.334;2023-07-29T12:10:58;100693.75;;;36.93;22.00
57600;BME280;43426;43.594;24.334;2023-07-29T12:13:24;100692.19;;;36.71;22.08
57600;BME280;43426;43.594;24.334;2023-07-29T12:15:50;100687.97;;;36.77;24.21
57600;BME280;43426;43.594;24.334;2023-07-29T12:18:18;100684.47;;;37.30;22.93
57600;BME280;43426;43.594;24.334;2023-07-29T12:20:43;100681.13;;;37.53;22.65
57600;BME280;43426;43.594;24.334;2023-07-29T12:23:09;100684.06;;;37.44;22.52
57600;BME280;43426;43.594;24.334;2023-07-29T12:25:34;100684.50;;;37.58;23.20
57600;BME280;43426;43.594;24.334;2023-07-29T12:28:10;100684.59;;;37.62;23.33
57600;BME280;43426;43.594;24.334;2023-07-29T12:30:41;100684.91;;;37.73;23.92
57600;BME280;43426;43.594;24.334;2023-07-29T12:33:06;100683.63;;;37.70;23.63
57600;BME280;43426;43.594;24.334;2023-07-29T12:35:35;100673.34;;;37.62;23.14
57600;BME280;43426;43.594;24.334;2023-07-29T12:38:01;100686.06;;;37.43;22.79
57600;BME280;43426;43.594;24.334;2023-07-29T12:40:26;100682.84;;;37.04;23.32
57600;BME280;43426;43.594;24.334;2023-07-29T12:42:52;100688.41;;;36.42;22.94
57600;BME280;43426;43.594;24.334;2023-07-29T12:45:18;100675.09;;;36.64;24.78
57600;BME280;43426;43.594;24.334;2023-07-29T12:47:43;100685.41;;;36.60;23.65
57600;BME280;43426;43.594;24.334;2023-07-29T12:50:11;100688.41;;;36.42;24.71
57600;BME280;43426;43.594;24.334;2023-07-29T12:52:37;100689.78;;;36.82;24.66